Time;durP1;ratioP1;P1;durP2;ratioP2;P2;SDS_P1;SDS_P2;PMS_P1;PMS_P2;Temp;Humidity;BMP_temperature;BMP_pressure;BME280_temperature;BME280_humidity;BME280_pressure;Samples;Min_cycle;Max_cycle;Signal;HPM_P1;HPM_P2
2022/08/21 00:00:19;;;;;;;1529.50;622.45;;;16.40;99.90;;;;;;5152201;27;20517;-76
2022/08/21 00:02:54;;;;;;;1999.90;689.88;;;16.30;99.90;;;;;;5153658;27;20045;-76
2022/08/21 00:05:21;;;;;;;1999.90;963.60;;;16.30;99.90;;;;;;5154008;27;20030;-77
2022/08/21 00:07:47;;;;;;;1999.90;998.92;;;16.30;99.90;;;;;;5137401;27;20030;-77
2022/08/21 00:10:14;;;;;;;1804.97;473.92;;;16.20;99.90;;;;;;5154233;27;20039;-76
2022/08/21 00:12:41;;;;;;;1808.75;957.35;;;16.10;99.90;;;;;;5136953;27;20050;-76
2022/08/21 00:15:10;;;;;;;1767.22;509.75;;;16.00;99.90;;;;;;5155810;27;20432;-75
2022/08/21 00:17:36;;;;;;;1578.75;407.27;;;16.00;99.90;;;;;;5152828;27;20055;-77
2022/08/21 00:20:05;;;;;;;1904.68;964.65;;;15.90;99.90;;;;;;5136933;27;20047;-75
2022/08/21 00:22:31;;;;;;;1989.03;618.90;;;15.90;99.90;;;;;;5157193;27;20043;-76
2022/08/21 00:24:57;;;;;;;1746.13;896.35;;;15.80;99.90;;;;;;5136162;27;20050;-76
2022/08/21 00:27:23;;;;;;;1999.90;960.67;;;15.80;99.90;;;;;;5154539;27;20390;-76
2022/08/21 00:29:49;;;;;;;1588.45;935.47;;;15.70;99.90;;;;;;5156473;27;20041;-75
2022/08/21 00:32:21;;;;;;;1531.70;992.42;;;15.60;99.90;;;;;;5155578;27;20043;-77
2022/08/21 00:34:46;;;;;;;1466.47;911.95;;;15.60;1.00;;;;;;5135144;27;20050;-83
2022/08/21 00:37:12;;;;;;;1537.78;940.75;;;15.60;1.00;;;;;;5153064;27;20119;-76
2022/08/21 00:39:38;;;;;;;1558.90;927.80;;;15.50;1.00;;;;;;5136333;27;20039;-81
2022/08/21 00:42:04;;;;;;;1611.78;931.40;;;15.50;1.00;;;;;;5119889;27;20095;-77
2022/08/21 00:44:30;;;;;;;1562.80;941.90;;;15.40;1.00;;;;;;5134996;27;20047;-77
2022/08/21 00:46:57;;;;;;;1465.28;933.78;;;15.40;1.00;;;;;;5164332;27;20098;-77
2022/08/21 00:49:22;;;;;;;1609.35;959.15;;;15.40;1.00;;;;;;5139733;27;20047;-77
2022/08/21 00:51:58;;;;;;;1709.85;929.80;;;15.40;1.00;;;;;;5133579;27;20363;-79
2022/08/21 00:54:26;;;;;;;1470.45;928.35;;;15.30;1.00;;;;;;5145651;27;20087;-75
2022/08/21 00:57:17;;;;;;;1488.47;964.63;;;15.30;1.00;;;;;;5152340;27;20517;-75
2022/08/21 00:59:45;;;;;;;1420.85;971.03;;;15.30;1.00;;;;;;5150282;27;20517;-75
2022/08/21 01:02:12;;;;;;;1488.00;952.30;;;15.20;1.00;;;;;;5154938;27;20050;-74
2022/08/21 01:04:38;;;;;;;1578.50;928.83;;;15.20;1.00;;;;;;5151895;27;20115;-76
2022/08/21 01:07:04;;;;;;;1496.72;962.63;;;15.10;1.00;;;;;;5153154;27;20046;-75
2022/08/21 01:09:30;;;;;;;1640.72;971.15;;;15.10;1.00;;;;;;5160681;27;20049;-75
2022/08/21 01:11:56;;;;;;;1515.30;969.35;;;15.10;1.00;;;;;;5165383;27;20478;-75
2022/08/21 01:14:22;;;;;;;1420.18;953.55;;;15.00;1.00;;;;;;5153913;27;20053;-74
2022/08/21 01:16:51;;;;;;;1519.35;951.53;;;15.10;1.00;;;;;;5152496;27;20049;-74
2022/08/21 01:19:18;;;;;;;1639.93;959.83;;;15.00;1.00;;;;;;5131398;27;20470;-74
2022/08/21 01:21:44;;;;;;;1750.88;984.22;;;15.00;1.00;;;;;;5153201;27;20402;-76
2022/08/21 01:24:11;;;;;;;1764.88;959.17;;;15.00;1.00;;;;;;5136364;27;20035;-75
2022/08/21 01:26:37;;;;;;;1875.30;970.05;;;14.90;1.00;;;;;;5153849;27;20046;-76
2022/08/21 01:29:21;;;;;;;1762.95;990.65;;;14.90;1.00;;;;;;5135965;27;20059;-78
2022/08/21 01:31:47;;;;;;;1734.25;970.97;;;14.90;15.10;;;;;;5149619;27;20517;-76
2022/08/21 01:34:13;;;;;;;1720.05;958.95;;;14.90;14.70;;;;;;5154262;27;20114;-76
2022/08/21 01:36:39;;;;;;;1832.05;952.17;;;14.90;16.80;;;;;;5150887;27;20948;-76
2022/08/21 01:39:05;;;;;;;1775.35;991.22;;;14.90;15.80;;;;;;5151941;27;20042;-77
2022/08/21 01:41:31;;;;;;;1900.97;999.90;;;14.90;37.70;;;;;;5148619;27;20039;-79
2022/08/21 01:43:57;;;;;;;1849.00;999.90;;;14.90;32.30;;;;;;5118421;27;20050;-77
2022/08/21 01:46:22;;;;;;;1779.72;999.75;;;14.90;34.10;;;;;;5153102;27;20095;-80
2022/08/21 01:48:49;;;;;;;1745.60;999.90;;;14.90;35.10;;;;;;5152113;27;20035;-77
2022/08/21 01:51:14;;;;;;;1929.57;999.90;;;14.90;71.60;;;;;;5154000;27;20088;-81
2022/08/21 01:53:40;;;;;;;1840.75;999.90;;;14.90;97.20;;;;;;5136698;27;20046;-80
2022/08/21 01:56:09;;;;;;;1603.93;998.58;;;14.90;95.40;;;;;;5136762;27;20498;-80
2022/08/21 01:58:35;;;;;;;1980.82;999.90;;;14.90;91.40;;;;;;5155057;27;20050;-83
2022/08/21 02:01:01;;;;;;;1999.90;999.90;;;14.90;99.90;;;;;;5155165;27;20093;-81
2022/08/21 02:03:30;;;;;;;1921.32;999.90;;;15.00;99.90;;;;;;5136466;27;20046;-82
2022/08/21 02:05:57;;;;;;;1766.00;999.90;;;15.00;99.90;;;;;;5135854;27;20050;-87
2022/08/21 02:08:23;;;;;;;1989.15;999.90;;;15.00;99.90;;;;;;5154091;27;20062;-90
2022/08/21 02:10:50;;;;;;;1999.90;999.90;;;15.10;99.90;;;;;;5102578;27;20383;-80
2022/08/21 02:13:17;;;;;;;1999.90;999.90;;;15.10;99.90;;;;;;5118739;27;20126;-80
2022/08/21 02:15:43;;;;;;;1864.55;999.90;;;15.20;99.90;;;;;;5136726;27;20135;-80
2022/08/21 02:18:08;;;;;;;1861.10;999.90;;;15.20;99.90;;;;;;5136921;27;20046;-86
2022/08/21 02:20:38;;;;;;;1967.07;999.90;;;15.20;99.90;;;;;;5153825;27;20065;-79
2022/08/21 02:23:06;;;;;;;1628.95;999.90;;;15.10;99.90;;;;;;5154870;27;20119;-79
2022/08/21 02:25:32;;;;;;;;;;;15.10;99.90;;;;;;5155260;27;20049;-79
2022/08/21 02:27:59;;;;;;;1884.82;999.90;;;15.10;99.90;;;;;;5154793;27;19919;-79
2022/08/21 02:30:31;;;;;;;1835.65;999.90;;;15.00;99.90;;;;;;5154325;27;20050;-80
2022/08/21 02:32:57;;;;;;;1633.57;999.90;;;15.00;99.90;;;;;;5136553;27;20050;-83
2022/08/21 02:35:22;;;;;;;1656.75;999.90;;;15.00;99.90;;;;;;5135828;27;20055;-79
2022/08/21 02:37:52;;;;;;;1916.20;999.90;;;15.00;99.90;;;;;;5154775;27;20508;-88
2022/08/21 02:40:20;;;;;;;1631.03;999.90;;;14.90;99.90;;;;;;5154029;27;20042;-79
2022/08/21 02:42:46;;;;;;;1999.90;999.90;;;14.90;99.90;;;;;;5154310;27;20038;-79
2022/08/21 02:45:13;;;;;;;1751.47;999.90;;;14.90;99.90;;;;;;5154356;27;20129;-79
2022/08/21 02:47:39;;;;;;;1684.13;999.90;;;14.80;99.90;;;;;;5154442;27;20042;-79
2022/08/21 02:50:07;;;;;;;1733.13;999.90;;;14.80;99.90;;;;;;5118719;27;20103;-79
2022/08/21 02:52:34;;;;;;;1953.90;999.90;;;14.80;99.90;;;;;;5154285;27;20122;-82
2022/08/21 02:54:59;;;;;;;1880.18;999.90;;;14.80;99.90;;;;;;5153815;27;20418;-80
2022/08/21 02:57:25;;;;;;;1775.55;999.90;;;14.80;99.90;;;;;;5153235;27;20054;-79
2022/08/21 02:59:51;;;;;;;1676.05;999.90;;;14.80;99.90;;;;;;5154091;27;20054;-93
2022/08/21 03:02:16;;;;;;;1999.90;999.90;;;14.70;99.90;;;;;;5134994;27;20109;-79
2022/08/21 03:04:42;;;;;;;1786.53;999.90;;;14.80;99.90;;;;;;5153605;27;20062;-79
2022/08/21 03:07:07;;;;;;;1964.80;999.90;;;14.80;99.90;;;;;;5153583;27;20104;-80
2022/08/21 03:09:33;;;;;;;1442.50;999.90;;;14.80;99.90;;;;;;5118681;27;20099;-79
2022/08/21 03:11:59;;;;;;;1784.88;999.90;;;14.80;99.90;;;;;;5153140;27;20043;-79
2022/08/21 03:14:25;;;;;;;1628.53;999.90;;;14.80;99.90;;;;;;5135699;27;20042;-82
2022/08/21 03:16:51;;;;;;;1725.53;999.90;;;14.80;99.90;;;;;;5135208;27;20042;-81
2022/08/21 03:19:16;;;;;;;1814.72;999.90;;;14.70;99.90;;;;;;5134750;27;20050;-81
2022/08/21 03:21:42;;;;;;;1670.75;999.90;;;14.90;99.90;;;;;;5152330;27;20047;-80
2022/08/21 03:24:08;;;;;;;1547.82;989.97;;;14.70;99.90;;;;;;5135336;27;20467;-80
2022/08/21 03:26:35;;;;;;;1717.10;999.90;;;14.70;99.90;;;;;;5153592;27;20047;-80
2022/08/21 03:29:00;;;;;;;1715.53;999.90;;;14.70;99.90;;;;;;5153332;27;20492;-80
2022/08/21 03:31:31;;;;;;;1667.22;999.90;;;15.30;99.90;;;;;;5154293;27;20050;-80
2022/08/21 03:33:57;;;;;;;1411.00;970.03;;;14.70;99.90;;;;;;5153661;27;20095;-89
2022/08/21 03:36:23;;;;;;;1468.13;989.13;;;14.80;99.90;;;;;;5153789;27;20386;-80
2022/08/21 03:38:49;;;;;;;1393.97;958.45;;;14.80;99.90;;;;;;5135447;27;20039;-79
2022/08/21 03:41:15;;;;;;;1479.82;988.80;;;14.80;89.70;;;;;;5154268;27;20321;-79
2022/08/21 03:43:40;;;;;;;1773.07;999.90;;;14.80;75.40;;;;;;5153397;27;20039;-91
2022/08/21 03:46:07;;;;;;;1477.60;999.90;;;14.90;99.10;;;;;;5135908;27;20420;-80
2022/08/21 03:48:34;;;;;;;1660.78;999.90;;;14.80;35.00;;;;;;5153702;27;20466;-79
2022/08/21 03:51:00;;;;;;;1855.25;999.90;;;14.80;75.20;;;;;;5135292;27;20050;-80
2022/08/21 03:53:26;;;;;;;1557.32;997.30;;;14.80;68.30;;;;;;5154045;27;20057;-84
2022/08/21 03:55:53;;;;;;;1493.30;998.45;;;14.80;41.70;;;;;;5153542;27;20065;-80
2022/08/21 03:58:21;;;;;;;1731.10;999.90;;;14.80;55.80;;;;;;5135176;27;20039;-80
2022/08/21 04:00:50;;;;;;;1871.85;997.20;;;14.70;59.70;;;;;;5153284;27;20450;-79
2022/08/21 04:03:17;;;;;;;1589.75;999.90;;;14.70;83.60;;;;;;5135258;27;20360;-80
2022/08/21 04:05:44;;;;;;;1909.22;999.90;;;14.70;97.30;;;;;;5152599;27;20042;-79
2022/08/21 04:08:10;;;;;;;1441.40;978.83;;;14.70;99.20;;;;;;5154987;27;20042;-80
2022/08/21 04:10:38;;;;;;;1644.80;999.90;;;14.70;99.90;;;;;;5156718;27;20050;-80
2022/08/21 04:13:04;;;;;;;;;;;14.70;98.40;;;;;;5157219;27;20099;-78
2022/08/21 04:15:30;;;;;;;1751.78;998.35;;;14.70;74.00;;;;;;5156275;27;19919;-79
2022/08/21 04:17:56;;;;;;;1801.72;999.90;;;14.70;82.70;;;;;;5157397;27;20554;-78
2022/08/21 04:20:22;;;;;;;1752.38;999.90;;;15.60;60.20;;;;;;5137775;27;20502;-81
2022/08/21 04:22:50;;;;;;;1634.30;999.90;;;14.70;27.00;;;;;;5157329;27;20057;-80
2022/08/21 04:25:17;;;;;;;;;;;15.80;37.20;;;;;;5157269;27;20130;-80
2022/08/21 04:27:43;;;;;;;1769.40;998.10;;;15.40;45.10;;;;;;5156431;27;19930;-79
2022/08/21 04:30:10;;;;;;;1654.80;999.90;;;14.70;77.80;;;;;;5156052;27;20046;-90
2022/08/21 04:32:37;;;;;;;1729.97;999.20;;;14.60;84.20;;;;;;5155658;27;20043;-79
2022/08/21 04:35:08;;;;;;;1602.13;997.70;;;14.60;73.90;;;;;;5138123;27;20497;-86
2022/08/21 04:37:34;;;;;;;1645.43;996.05;;;14.70;90.20;;;;;;5138483;27;20074;-80
2022/08/21 04:40:00;;;;;;;1519.18;982.90;;;14.60;64.80;;;;;;5137662;27;20553;-81
2022/08/21 04:42:27;;;;;;;1619.05;988.25;;;14.60;81.00;;;;;;5137705;27;20130;-80
2022/08/21 04:44:54;;;;;;;1612.47;999.90;;;14.60;97.90;;;;;;5156450;27;20074;-80
2022/08/21 04:47:21;;;;;;;1831.03;999.90;;;14.50;98.50;;;;;;5155182;27;20050;-81
2022/08/21 04:49:47;;;;;;;1502.35;988.53;;;14.70;99.90;;;;;;5156275;27;20479;-84
2022/08/21 04:52:16;;;;;;;1727.93;999.90;;;14.70;44.50;;;;;;5156324;27;20046;-80
2022/08/21 04:54:44;;;;;;;1806.57;999.90;;;14.70;48.30;;;;;;5133943;27;20066;-85
2022/08/21 04:57:11;;;;;;;1745.50;999.90;;;14.70;62.10;;;;;;5133641;27;20061;-80
2022/08/21 04:59:40;;;;;;;1762.95;999.90;;;14.70;51.50;;;;;;5134828;27;20047;-80
2022/08/21 05:02:08;;;;;;;1397.00;958.55;;;14.70;6.60;;;;;;5135149;27;20111;-88
2022/08/21 05:04:36;;;;;;;;;;;14.70;40.30;;;;;;5135920;27;20051;-80
2022/08/21 05:07:06;;;;;;;1614.05;967.30;;;14.80;99.90;;;;;;5135291;27;19923;-79
2022/08/21 05:09:33;;;;;;;1606.95;996.50;;;14.80;61.30;;;;;;5135480;27;20039;-83
2022/08/21 05:12:02;;;;;;;1488.78;985.60;;;14.90;93.70;;;;;;5135894;27;20475;-79
2022/08/21 05:14:27;;;;;;;1351.60;944.50;;;14.80;99.90;;;;;;5135994;27;20087;-80
2022/08/21 05:16:53;;;;;;;1646.18;976.60;;;14.80;99.90;;;;;;5134790;27;20083;-79
2022/08/21 05:19:19;;;;;;;1897.15;999.90;;;14.80;99.90;;;;;;5116921;27;20039;-79
2022/08/21 05:21:47;;;;;;;1482.28;954.55;;;14.90;99.90;;;;;;5136404;27;20379;-79
2022/08/21 05:24:13;;;;;;;1514.35;964.95;;;14.90;99.90;;;;;;5134572;27;20078;-79
2022/08/21 05:26:39;;;;;;;1562.97;967.55;;;15.00;99.90;;;;;;5135077;27;20051;-80
2022/08/21 05:29:06;;;;;;;1498.18;968.75;;;15.00;99.90;;;;;;5134466;27;20047;-84
2022/08/21 05:31:31;;;;;;;1579.35;987.13;;;15.00;99.90;;;;;;5134449;27;20064;-79
2022/08/21 05:33:57;;;;;;;1586.20;897.88;;;15.10;99.90;;;;;;5135146;27;20047;-80
2022/08/21 05:36:23;;;;;;;1714.10;998.70;;;15.10;99.90;;;;;;5115860;27;20498;-79
2022/08/21 05:38:49;;;;;;;1671.05;996.95;;;15.20;99.90;;;;;;5135033;27;20101;-80
2022/08/21 05:41:15;;;;;;;1510.82;981.75;;;15.20;99.90;;;;;;5134432;27;20039;-79
2022/08/21 05:43:41;;;;;;;1347.15;897.30;;;15.20;99.90;;;;;;5134507;27;20475;-80
2022/08/21 05:46:07;;;;;;;1364.72;906.90;;;15.30;99.90;;;;;;5133520;27;20069;-80
2022/08/21 05:48:34;;;;;;;1724.55;968.78;;;15.30;99.90;;;;;;5133234;27;20054;-79
2022/08/21 05:51:09;;;;;;;1574.47;931.85;;;15.30;99.90;;;;;;5134184;27;20135;-82
2022/08/21 05:53:36;;;;;;;1426.20;940.60;;;15.30;99.90;;;;;;5133125;27;20058;-85
2022/08/21 05:56:03;;;;;;;1569.07;980.17;;;15.40;99.90;;;;;;5136169;27;20049;-87
2022/08/21 05:58:31;;;;;;;1464.30;956.42;;;15.50;99.90;;;;;;5118735;27;20051;-78
2022/08/21 06:00:58;;;;;;;1898.05;993.03;;;15.40;99.90;;;;;;5154643;27;20039;-78
2022/08/21 06:03:27;;;;;;;1999.90;999.90;;;15.50;99.90;;;;;;5154491;27;20111;-79
2022/08/21 06:05:55;;;;;;;1677.40;999.90;;;15.50;99.90;;;;;;5152298;27;20129;-84
2022/08/21 06:08:22;;;;;;;1827.50;998.80;;;15.70;99.90;;;;;;5135028;27;20393;-84
2022/08/21 06:10:50;;;;;;;1568.10;993.83;;;15.70;99.90;;;;;;5133434;27;20054;-89
2022/08/21 06:13:17;;;;;;;1578.60;999.90;;;15.70;99.90;;;;;;5152152;27;20390;-84
2022/08/21 06:15:43;;;;;;;1491.03;986.77;;;15.80;99.90;;;;;;5153592;27;20043;-82
2022/08/21 06:18:09;;;;;;;1504.15;972.63;;;15.90;99.90;;;;;;5134875;27;20455;-80
2022/08/21 06:20:35;;;;;;;1487.10;954.63;;;15.90;99.90;;;;;;5134577;27;20089;-87
2022/08/21 06:23:01;;;;;;;1837.15;999.90;;;15.90;99.90;;;;;;5133643;27;20394;-85
2022/08/21 06:25:27;;;;;;;1614.30;999.90;;;16.10;99.90;;;;;;5153412;27;20054;-82
2022/08/21 06:27:53;;;;;;;1806.65;998.30;;;16.20;99.90;;;;;;5135514;27;20050;-88
2022/08/21 06:30:19;;;;;;;1507.03;989.42;;;16.20;99.90;;;;;;5133654;27;20417;-82
2022/08/21 06:32:45;;;;;;;1604.18;973.47;;;16.30;99.90;;;;;;5151069;27;20050;-87
2022/08/21 06:35:11;;;;;;;1972.22;999.90;;;16.40;99.90;;;;;;5116284;27;20049;-82
2022/08/21 06:37:36;;;;;;;1659.82;995.80;;;16.50;99.90;;;;;;5152505;27;20043;-81
2022/08/21 06:40:05;;;;;;;1683.82;999.90;;;16.70;99.90;;;;;;5134713;27;20189;-80
2022/08/21 06:42:31;;;;;;;1672.75;998.25;;;16.80;99.90;;;;;;5152638;27;20069;-90
2022/08/21 06:44:57;;;;;;;1595.07;999.90;;;16.80;99.90;;;;;;5116324;27;20486;-85
2022/08/21 06:47:22;;;;;;;1673.30;992.83;;;16.90;99.90;;;;;;5152096;27;20046;-85
2022/08/21 06:49:48;;;;;;;1749.65;999.90;;;16.90;99.90;;;;;;5153682;27;20051;-82
2022/08/21 06:52:14;;;;;;;1951.00;999.90;;;17.00;99.90;;;;;;5151578;27;20043;-81
2022/08/21 06:54:41;;;;;;;1970.38;999.90;;;17.10;99.90;;;;;;5116504;27;20050;-85
2022/08/21 06:57:07;;;;;;;1947.65;999.90;;;17.30;99.90;;;;;;5153094;27;20046;-83
2022/08/21 06:59:32;;;;;;;1973.40;999.90;;;17.40;99.90;;;;;;5152493;27;20119;-82
2022/08/21 07:01:59;;;;;;;1999.90;999.90;;;17.50;99.90;;;;;;5134668;27;20464;-82
2022/08/21 07:04:25;;;;;;;1836.80;939.25;;;17.50;99.90;;;;;;5153539;27;20126;-83
2022/08/21 07:06:51;;;;;;;1999.90;879.45;;;17.70;99.90;;;;;;5135156;27;20098;-82
2022/08/21 07:09:17;;;;;;;1999.90;797.10;;;17.80;91.20;;;;;;5135748;27;20085;-84
2022/08/21 07:11:46;;;;;;;1734.95;745.20;;;17.90;46.20;;;;;;5134035;27;20475;-83
2022/08/21 07:14:12;;;;;;;1919.00;761.10;;;18.00;7.50;;;;;;5119144;27;20498;-81
2022/08/21 07:16:38;;;;;;;1421.30;376.50;;;18.00;1.00;;;;;;5153746;27;20167;-83
2022/08/21 07:19:03;;;;;;;923.42;226.77;;;18.10;1.00;;;;;;5135026;27;20058;-84
2022/08/21 07:21:29;;;;;;;1982.78;576.58;;;18.20;1.00;;;;;;5135918;27;20410;-83
2022/08/21 07:23:54;;;;;;;972.67;246.82;;;18.30;1.00;;;;;;5154309;27;20461;-83
2022/08/21 07:26:22;;;;;;;1794.50;718.28;;;18.50;1.00;;;;;;5135575;27;20043;-86
2022/08/21 07:28:48;;;;;;;1483.57;473.75;;;18.50;1.00;;;;;;5152485;27;20466;-82
2022/08/21 07:31:17;;;;;;;1999.90;999.90;;;18.80;1.00;;;;;;5153465;27;20204;-83
2022/08/21 07:33:43;;;;;;;1999.90;999.90;;;20.10;99.90;;;;;;5135458;27;20146;-82
2022/08/21 07:36:10;;;;;;;1999.90;999.90;;;21.20;99.90;;;;;;5134918;27;20039;-83
2022/08/21 07:38:36;;;;;;;1999.90;999.90;;;22.20;99.90;;;;;;5118354;27;20046;-82
2022/08/21 07:41:11;;;;;;;1999.90;999.90;;;23.00;99.90;;;;;;5153964;27;20041;-83
2022/08/21 07:43:37;;;;;;;1999.90;999.90;;;23.70;99.90;;;;;;5156282;27;20090;-82
2022/08/21 07:46:03;;;;;;;1999.90;999.90;;;24.60;77.80;;;;;;5139884;27;20038;-82
2022/08/21 07:48:29;;;;;;;1999.90;999.90;;;25.80;82.10;;;;;;5156974;27;20457;-83
2022/08/21 07:50:55;;;;;;;1999.90;999.90;;;26.70;23.90;;;;;;5137800;27;20103;-83
2022/08/21 07:53:21;;;;;;;1999.90;999.90;;;26.70;1.00;;;;;;5157051;27;20077;-88
2022/08/21 07:55:46;;;;;;;1999.90;999.90;;;26.60;1.00;;;;;;5156872;27;20062;-82
2022/08/21 07:58:12;;;;;;;1999.90;999.90;;;26.70;1.00;;;;;;5139401;27;20055;-84
2022/08/21 08:00:39;;;;;;;1999.90;999.90;;;27.20;1.00;;;;;;5156214;27;20088;-88
2022/08/21 08:03:05;;;;;;;1999.90;999.90;;;27.50;1.00;;;;;;5138494;27;20054;-88
2022/08/21 08:05:31;;;;;;;1999.90;999.90;;;27.40;1.00;;;;;;5156448;27;20043;-84
2022/08/21 08:07:58;;;;;;;1999.90;999.90;;;26.70;1.00;;;;;;5156842;27;20134;-82
2022/08/21 08:10:24;;;;;;;1999.90;999.90;;;26.80;1.00;;;;;;5138645;27;20051;-82
2022/08/21 08:12:54;;;;;;;1999.90;999.90;;;27.50;1.00;;;;;;5138525;27;20043;-83
2022/08/21 08:15:23;;;;;;;1999.90;999.90;;;28.20;1.00;;;;;;5157606;27;20068;-84
2022/08/21 08:17:49;;;;;;;1999.90;999.90;;;27.50;1.00;;;;;;5157477;27;20052;-84
2022/08/21 08:20:16;;;;;;;1999.90;999.90;;;27.10;1.00;;;;;;5138578;27;20046;-83
2022/08/21 08:22:42;;;;;;;1999.90;999.90;;;26.90;1.00;;;;;;5138836;27;20375;-83
2022/08/21 08:25:10;;;;;;;1999.90;999.90;;;26.40;1.00;;;;;;5156441;27;20043;-83
2022/08/21 08:27:35;;;;;;;;;;;26.30;1.00;;;;;;5157429;27;20086;-84
2022/08/21 08:30:01;;;;;;;1999.90;999.90;;;27.60;1.00;;;;;;5138702;27;19962;-83
2022/08/21 08:32:27;;;;;;;1999.90;999.90;;;28.60;1.00;;;;;;5138994;27;20043;-82
2022/08/21 08:34:53;;;;;;;1999.90;999.90;;;27.70;1.00;;;;;;5156896;27;20080;-82
2022/08/21 08:37:19;;;;;;;1999.90;999.90;;;28.80;1.00;;;;;;5138711;27;20122;-82
2022/08/21 08:39:46;;;;;;;1999.90;999.90;;;27.80;1.00;;;;;;5138258;27;20034;-83
2022/08/21 08:42:22;;;;;;;1999.90;999.90;;;27.60;1.00;;;;;;5156746;27;20038;-83
2022/08/21 08:44:50;;;;;;;1999.90;999.90;;;28.50;1.00;;;;;;5156727;27;20455;-83
2022/08/21 08:47:18;;;;;;;1999.90;999.90;;;27.90;1.00;;;;;;5138821;27;20034;-83
2022/08/21 08:50:00;;;;;;;1999.90;999.90;;;28.60;1.00;;;;;;5137732;27;20038;-83
2022/08/21 08:52:36;;;;;;;1999.90;999.90;;;29.30;1.00;;;;;;5156018;27;20043;-84
2022/08/21 08:55:09;;;;;;;1999.90;999.90;;;28.80;1.00;;;;;;5119536;27;20061;-83
2022/08/21 08:57:36;;;;;;;1999.90;999.90;;;28.80;1.00;;;;;;5155821;27;20038;-84
2022/08/21 09:00:08;;;;;;;1999.90;999.90;;;29.20;1.00;;;;;;5138585;27;20050;-86
2022/08/21 09:02:35;;;;;;;1999.90;999.90;;;29.10;1.00;;;;;;5155660;27;20479;-85
2022/08/21 09:05:01;;;;;;;1999.90;999.90;;;29.70;1.00;;;;;;5138160;27;20163;-83
2022/08/21 09:07:46;;;;;;;1999.90;999.90;;;30.00;1.00;;;;;;5136548;27;20129;-83
2022/08/21 09:10:39;;;;;;;1999.90;999.90;;;30.70;1.00;;;;;;5137999;27;20042;-84
2022/08/21 09:13:05;;;;;;;1999.90;999.90;;;31.90;1.00;;;;;;5154653;27;20118;-88
2022/08/21 09:15:50;;;;;;;1999.90;999.90;;;32.10;1.00;;;;;;5155154;27;20459;-82
2022/08/21 09:18:21;;;;;;;1999.90;999.90;;;31.90;1.00;;;;;;5136988;27;20075;-81
2022/08/21 09:21:13;;;;;;;1999.90;999.90;;;32.70;1.00;;;;;;5155882;27;20043;-82
2022/08/21 09:23:43;;;;;;;1999.90;999.90;;;33.20;1.00;;;;;;5136853;27;20096;-86
2022/08/21 09:26:19;;;;;;;1999.90;999.90;;;32.60;1.00;;;;;;5154689;27;20038;-82
2022/08/21 09:28:51;;;;;;;734.60;670.90;;;33.50;1.00;;;;;;5137089;27;20418;-82
2022/08/21 09:31:33;;;;;;;1999.90;999.90;;;33.90;1.00;;;;;;5137465;27;20038;-82
2022/08/21 09:34:09;;;;;;;865.92;794.03;;;34.50;1.00;;;;;;5155277;27;20379;-83
2022/08/21 09:36:43;;;;;;;554.30;506.65;;;35.40;1.00;;;;;;5137298;27;20462;-82
2022/08/21 09:39:11;;;;;;;906.47;622.00;;;35.80;1.00;;;;;;5155818;27;20121;-82
2022/08/21 09:41:38;;;;;;;1224.43;904.80;;;35.70;1.00;;;;;;5154773;27;20038;-83
2022/08/21 09:44:05;;;;;;;;;;;33.50;1.00;;;;;;5156882;27;20039;-83
2022/08/21 09:46:32;;;;;;;1999.90;999.90;;;32.50;1.00;;;;;;5155994;27;19967;-82
2022/08/21 09:49:00;;;;;;;1999.90;999.90;;;30.90;1.00;;;;;;5137123;27;20043;-82
2022/08/21 09:51:35;;;;;;;1999.90;999.90;;;31.10;1.00;;;;;;5155646;27;20066;-84
2022/08/21 09:54:07;;;;;;;1999.90;999.90;;;31.10;1.00;;;;;;5136679;27;20054;-82
2022/08/21 10:00:19;;;;;;;1999.90;999.90;;;31.60;1.00;;;;;;5155496;27;20416;-81
2022/08/21 10:02:45;;;;;;;1999.90;999.90;;;30.30;1.00;;;;;;5155189;27;20037;-82
2022/08/21 10:05:24;;;;;;;1999.90;999.90;;;31.10;1.00;;;;;;5137179;27;20038;-81
2022/08/21 10:07:51;;;;;;;1999.90;999.90;;;30.40;1.00;;;;;;5155087;27;20051;-82
2022/08/21 10:10:23;;;;;;;1999.90;999.90;;;31.00;1.00;;;;;;5137026;27;20041;-81
2022/08/21 10:12:51;;;;;;;1999.90;999.90;;;31.60;1.00;;;;;;5154718;27;20092;-81
2022/08/21 10:15:42;;;;;;;1999.90;999.90;;;31.70;1.00;;;;;;5155114;27;20373;-81
2022/08/21 10:18:36;;;;;;;1999.90;999.90;;;31.10;1.00;;;;;;5136924;27;20077;-81
2022/08/21 10:21:22;;;;;;;1999.90;999.90;;;29.60;1.00;;;;;;5155300;27;20043;-81
2022/08/21 10:23:48;;;;;;;1999.90;999.90;;;29.40;1.00;;;;;;5136435;27;20042;-82
2022/08/21 10:26:16;;;;;;;1999.90;999.90;;;29.00;1.00;;;;;;5136641;27;20075;-81
2022/08/21 10:28:55;;;;;;;1999.90;999.90;;;28.70;1.00;;;;;;5154271;27;20050;-82
2022/08/21 10:31:38;;;;;;;1999.90;999.90;;;28.50;1.00;;;;;;5136741;27;20043;-81
2022/08/21 10:34:41;;;;;;;1999.90;999.90;;;28.70;1.00;;;;;;5155140;27;20375;-82
2022/08/21 10:37:25;;;;;;;1999.90;999.90;;;29.80;1.00;;;;;;5154646;27;20416;-82
2022/08/21 10:40:19;;;;;;;1999.90;999.90;;;30.60;1.00;;;;;;5154487;27;20080;-82
2022/08/21 10:43:01;;;;;;;1999.90;999.90;;;30.40;1.00;;;;;;5154365;27;20172;-82
2022/08/21 10:45:48;;;;;;;1999.90;999.90;;;30.50;1.00;;;;;;5154944;27;20042;-82
2022/08/21 10:48:28;;;;;;;1999.90;999.90;;;31.20;1.00;;;;;;5154918;27;20090;-83
2022/08/21 10:51:06;;;;;;;1999.90;999.90;;;32.60;1.00;;;;;;5154318;27;20043;-81
2022/08/21 10:53:58;;;;;;;1999.90;999.90;;;32.50;1.00;;;;;;5153979;27;20376;-81
2022/08/21 10:56:30;;;;;;;1999.90;999.90;;;30.60;1.00;;;;;;5136246;27;20470;-85
2022/08/21 10:59:23;;;;;;;1999.90;999.90;;;29.60;1.00;;;;;;5119234;27;20119;-83
2022/08/21 11:01:57;;;;;;;1999.90;999.90;;;29.40;1.00;;;;;;5136100;27;20035;-81
2022/08/21 11:04:36;;;;;;;1999.90;999.90;;;30.10;1.00;;;;;;5154752;27;20046;-81
2022/08/21 11:07:11;;;;;;;1999.90;999.90;;;31.80;1.00;;;;;;5154428;27;20046;-81
2022/08/21 11:09:38;;;;;;;1999.90;999.90;;;32.40;99.90;;;;;;5136055;27;20045;-81
2022/08/21 11:12:15;;;;;;;1999.90;999.90;;;33.00;99.90;;;;;;5153932;27;20049;-85
2022/08/21 11:14:51;;;;;;;1704.47;937.90;;;33.70;99.90;;;;;;5154479;27;20428;-83
2022/08/21 11:17:24;;;;;;;1999.90;999.90;;;34.20;99.90;;;;;;5135746;27;20125;-82
2022/08/21 11:20:04;;;;;;;1999.90;999.90;;;34.60;99.90;;;;;;5153980;27;20125;-81
2022/08/21 11:22:44;;;;;;;1999.90;999.90;;;34.00;99.90;;;;;;5154096;27;20505;-82
2022/08/21 11:25:25;;;;;;;1999.90;999.90;;;33.20;99.90;;;;;;5135539;27;20370;-81
2022/08/21 11:27:58;;;;;;;1999.90;999.90;;;32.10;99.90;;;;;;5154019;27;20039;-81
2022/08/21 11:30:30;;;;;;;1999.90;999.90;;;30.80;99.90;;;;;;5154163;27;20047;-81
2022/08/21 11:33:27;;;;;;;1999.90;999.90;;;30.30;99.90;;;;;;5135574;27;20122;-82
2022/08/21 11:36:04;;;;;;;1999.90;999.90;;;28.90;99.90;;;;;;5153966;27;20043;-82
2022/08/21 11:38:35;;;;;;;1999.90;999.90;;;28.80;1.00;;;;;;5135828;27;20042;-81
2022/08/21 11:41:00;;;;;;;1999.90;999.90;;;28.50;1.00;;;;;;5135374;27;20038;-82
2022/08/21 11:43:32;;;;;;;1999.90;999.90;;;28.60;1.00;;;;;;5135394;27;20480;-82
2022/08/21 11:46:03;;;;;;;1999.90;999.90;;;28.80;1.00;;;;;;5117739;27;20034;-81
2022/08/21 11:48:58;;;;;;;976.72;624.15;;;28.80;1.00;;;;;;5118895;27;20047;-82
2022/08/21 11:51:48;;;;;;;1999.90;999.90;;;28.70;1.00;;;;;;5153930;27;20093;-82
2022/08/21 11:54:34;;;;;;;1999.90;999.90;;;28.20;1.00;;;;;;5153990;27;20125;-82
2022/08/21 11:57:20;;;;;;;1999.90;999.90;;;27.90;1.00;;;;;;5118245;27;20045;-82
2022/08/21 11:59:53;;;;;;;1999.90;999.90;;;27.60;1.00;;;;;;5135147;27;20068;-82
2022/08/21 12:02:24;;;;;;;1999.90;999.90;;;27.20;1.00;;;;;;5153798;27;20034;-82
2022/08/21 12:04:56;;;;;;;1999.90;999.90;;;27.20;1.00;;;;;;5153508;27;20481;-82
2022/08/21 12:07:41;;;;;;;1999.90;999.90;;;28.50;1.00;;;;;;5135689;27;20039;-82
2022/08/21 12:10:20;;;;;;;1999.90;999.90;;;29.60;1.00;;;;;;5135466;27;20451;-82
2022/08/21 12:12:46;;;;;;;1999.90;999.90;;;29.40;1.00;;;;;;5153596;27;20462;-81
2022/08/21 12:15:12;;;;;;;1570.70;803.08;;;29.00;1.00;;;;;;5153467;27;20042;-82
2022/08/21 12:17:40;;;;;;;1999.90;999.90;;;28.50;1.00;;;;;;5135223;27;20038;-81
2022/08/21 12:20:16;;;;;;;1999.90;999.90;;;28.20;1.00;;;;;;5153940;27;20047;-82